sensor_id;sensor_type;location;lat;lon;timestamp;P1;durP1;ratioP1;P2;durP2;ratioP2
55063;SDS011;40963;52.168;21.296;2023-01-19T00:00:49;38.15;;;17.27;;
55063;SDS011;40963;52.168;21.296;2023-01-19T00:03:15;47.88;;;19.08;;
55063;SDS011;40963;52.168;21.296;2023-01-19T00:05:42;45.45;;;17.95;;
55063;SDS011;40963;52.168;21.296;2023-01-19T00:08:08;43.15;;;18.27;;
55063;SDS011;40963;52.168;21.296;2023-01-19T00:10:47;41.20;;;17.77;;
55063;SDS011;40963;52.168;21.296;2023-01-19T00:13:15;33.45;;;14.38;;
55063;SDS011;40963;52.168;21.296;2023-01-19T00:15:40;40.75;;;16.65;;
55063;SDS011;40963;52.168;21.296;2023-01-19T00:18:07;36.97;;;16.67;;
55063;SDS011;40963;52.168;21.296;2023-01-19T00:20:32;37.08;;;17.13;;
55063;SDS011;40963;52.168;21.296;2023-01-19T00:22:59;38.28;;;19.02;;
55063;SDS011;40963;52.168;21.296;2023-01-19T00:25:26;37.17;;;17.80;;
55063;SDS011;40963;52.168;21.296;2023-01-19T00:27:52;41.78;;;18.40;;
55063;SDS011;40963;52.168;21.296;2023-01-19T00:30:18;40.78;;;16.20;;
55063;SDS011;40963;52.168;21.296;2023-01-19T00:32:43;48.42;;;17.90;;
55063;SDS011;40963;52.168;21.296;2023-01-19T00:35:09;40.55;;;17.33;;
55063;SDS011;40963;52.168;21.296;2023-01-19T00:37:35;37.90;;;17.40;;
55063;SDS011;40963;52.168;21.296;2023-01-19T00:40:00;42.28;;;17.20;;
55063;SDS011;40963;52.168;21.296;2023-01-19T00:42:26;39.35;;;16.02;;
55063;SDS011;40963;52.168;21.296;2023-01-19T00:45:13;40.08;;;16.55;;
55063;SDS011;40963;52.168;21.296;2023-01-19T00:47:40;44.35;;;16.48;;
55063;SDS011;40963;52.168;21.296;2023-01-19T00:50:06;43.83;;;18.23;;
55063;SDS011;40963;52.168;21.296;2023-01-19T00:52:35;38.80;;;17.83;;
55063;SDS011;40963;52.168;21.296;2023-01-19T00:55:02;39.28;;;16.88;;
55063;SDS011;40963;52.168;21.296;2023-01-19T00:57:28;41.72;;;17.73;;
55063;SDS011;40963;52.168;21.296;2023-01-19T00:59:53;36.80;;;18.33;;
55063;SDS011;40963;52.168;21.296;2023-01-19T01:02:19;40.65;;;17.40;;
55063;SDS011;40963;52.168;21.296;2023-01-19T01:04:45;39.15;;;16.90;;
55063;SDS011;40963;52.168;21.296;2023-01-19T01:07:10;40.67;;;17.10;;
55063;SDS011;40963;52.168;21.296;2023-01-19T01:09:36;34.60;;;16.17;;
55063;SDS011;40963;52.168;21.296;2023-01-19T01:12:02;42.22;;;16.85;;
55063;SDS011;40963;52.168;21.296;2023-01-19T01:14:28;39.20;;;16.88;;
55063;SDS011;40963;52.168;21.296;2023-01-19T01:16:53;41.60;;;16.88;;
55063;SDS011;40963;52.168;21.296;2023-01-19T01:19:19;38.75;;;17.17;;
55063;SDS011;40963;52.168;21.296;2023-01-19T01:21:45;40.50;;;17.20;;
55063;SDS011;40963;52.168;21.296;2023-01-19T01:24:11;44.15;;;19.17;;
55063;SDS011;40963;52.168;21.296;2023-01-19T01:26:37;35.75;;;16.48;;
55063;SDS011;40963;52.168;21.296;2023-01-19T01:29:03;43.85;;;17.38;;
55063;SDS011;40963;52.168;21.296;2023-01-19T01:31:30;40.90;;;17.33;;
55063;SDS011;40963;52.168;21.296;2023-01-19T01:33:55;41.83;;;17.25;;
55063;SDS011;40963;52.168;21.296;2023-01-19T01:36:21;40.35;;;16.98;;
55063;SDS011;40963;52.168;21.296;2023-01-19T01:38:47;41.97;;;17.98;;
55063;SDS011;40963;52.168;21.296;2023-01-19T01:41:13;42.13;;;18.35;;
55063;SDS011;40963;52.168;21.296;2023-01-19T01:43:42;40.60;;;17.73;;
55063;SDS011;40963;52.168;21.296;2023-01-19T01:46:10;42.50;;;18.60;;
55063;SDS011;40963;52.168;21.296;2023-01-19T01:48:39;38.72;;;18.30;;
55063;SDS011;40963;52.168;21.296;2023-01-19T01:51:23;44.38;;;19.00;;
55063;SDS011;40963;52.168;21.296;2023-01-19T01:54:02;40.40;;;18.20;;
55063;SDS011;40963;52.168;21.296;2023-01-19T01:56:35;43.92;;;18.05;;
55063;SDS011;40963;52.168;21.296;2023-01-19T01:59:05;43.28;;;18.42;;
55063;SDS011;40963;52.168;21.296;2023-01-19T02:01:35;51.95;;;19.48;;
55063;SDS011;40963;52.168;21.296;2023-01-19T02:04:19;44.25;;;18.42;;
55063;SDS011;40963;52.168;21.296;2023-01-19T02:06:46;47.00;;;21.33;;
55063;SDS011;40963;52.168;21.296;2023-01-19T02:09:31;40.05;;;17.65;;
55063;SDS011;40963;52.168;21.296;2023-01-19T02:12:18;46.70;;;18.25;;
55063;SDS011;40963;52.168;21.296;2023-01-19T02:15:02;39.92;;;17.30;;
55063;SDS011;40963;52.168;21.296;2023-01-19T02:17:28;49.40;;;18.77;;
55063;SDS011;40963;52.168;21.296;2023-01-19T02:19:54;45.40;;;19.60;;
55063;SDS011;40963;52.168;21.296;2023-01-19T02:22:30;41.97;;;19.42;;
55063;SDS011;40963;52.168;21.296;2023-01-19T02:25:00;39.40;;;17.58;;
55063;SDS011;40963;52.168;21.296;2023-01-19T02:27:30;49.85;;;19.35;;
55063;SDS011;40963;52.168;21.296;2023-01-19T02:29:57;40.88;;;18.05;;
55063;SDS011;40963;52.168;21.296;2023-01-19T02:32:24;42.40;;;18.08;;
55063;SDS011;40963;52.168;21.296;2023-01-19T02:34:50;36.70;;;17.23;;
55063;SDS011;40963;52.168;21.296;2023-01-19T02:37:16;42.25;;;17.45;;
55063;SDS011;40963;52.168;21.296;2023-01-19T02:39:44;45.92;;;18.05;;
55063;SDS011;40963;52.168;21.296;2023-01-19T02:42:20;41.92;;;17.33;;
55063;SDS011;40963;52.168;21.296;2023-01-19T02:44:59;50.28;;;20.42;;
55063;SDS011;40963;52.168;21.296;2023-01-19T02:47:41;53.33;;;18.95;;
55063;SDS011;40963;52.168;21.296;2023-01-19T02:53:03;42.28;;;17.20;;
55063;SDS011;40963;52.168;21.296;2023-01-19T02:55:52;37.63;;;17.30;;
55063;SDS011;40963;52.168;21.296;2023-01-19T03:04:13;47.60;;;17.77;;
55063;SDS011;40963;52.168;21.296;2023-01-19T03:06:58;43.58;;;17.95;;
55063;SDS011;40963;52.168;21.296;2023-01-19T03:10:24;41.90;;;17.77;;
55063;SDS011;40963;52.168;21.296;2023-01-19T03:12:34;47.63;;;18.33;;
55063;SDS011;40963;52.168;21.296;2023-01-19T03:15:12;43.25;;;18.35;;
55063;SDS011;40963;52.168;21.296;2023-01-19T03:17:47;44.85;;;17.45;;
55063;SDS011;40963;52.168;21.296;2023-01-19T03:20:14;39.33;;;15.73;;
55063;SDS011;40963;52.168;21.296;2023-01-19T03:22:45;39.30;;;17.33;;
55063;SDS011;40963;52.168;21.296;2023-01-19T03:25:14;43.13;;;17.63;;
55063;SDS011;40963;52.168;21.296;2023-01-19T03:27:43;39.42;;;17.33;;
55063;SDS011;40963;52.168;21.296;2023-01-19T03:30:21;37.40;;;17.45;;
55063;SDS011;40963;52.168;21.296;2023-01-19T03:32:55;47.50;;;19.52;;
55063;SDS011;40963;52.168;21.296;2023-01-19T03:35:28;44.80;;;18.83;;
55063;SDS011;40963;52.168;21.296;2023-01-19T03:37:56;41.95;;;17.88;;
55063;SDS011;40963;52.168;21.296;2023-01-19T03:40:28;46.85;;;19.17;;
55063;SDS011;40963;52.168;21.296;2023-01-19T03:42:56;48.22;;;20.02;;
55063;SDS011;40963;52.168;21.296;2023-01-19T03:45:24;43.92;;;17.40;;
55063;SDS011;40963;52.168;21.296;2023-01-19T03:47:51;40.65;;;18.83;;
55063;SDS011;40963;52.168;21.296;2023-01-19T03:50:23;39.00;;;17.25;;
55063;SDS011;40963;52.168;21.296;2023-01-19T03:55:37;37.47;;;16.70;;
55063;SDS011;40963;52.168;21.296;2023-01-19T03:58:04;37.95;;;15.75;;
55063;SDS011;40963;52.168;21.296;2023-01-19T04:00:30;44.00;;;18.30;;
55063;SDS011;40963;52.168;21.296;2023-01-19T04:02:57;39.95;;;18.00;;
55063;SDS011;40963;52.168;21.296;2023-01-19T04:05:22;41.95;;;18.63;;
55063;SDS011;40963;52.168;21.296;2023-01-19T04:07:48;44.38;;;18.17;;
55063;SDS011;40963;52.168;21.296;2023-01-19T04:10:15;35.10;;;16.27;;
55063;SDS011;40963;52.168;21.296;2023-01-19T04:12:41;34.17;;;17.67;;
55063;SDS011;40963;52.168;21.296;2023-01-19T04:15:07;37.47;;;15.77;;
55063;SDS011;40963;52.168;21.296;2023-01-19T04:17:33;40.92;;;15.48;;
55063;SDS011;40963;52.168;21.296;2023-01-19T04:19:58;35.80;;;16.02;;
55063;SDS011;40963;52.168;21.296;2023-01-19T04:22:24;49.28;;;16.40;;
55063;SDS011;40963;52.168;21.296;2023-01-19T04:24:50;37.53;;;14.57;;
55063;SDS011;40963;52.168;21.296;2023-01-19T04:27:16;33.50;;;15.25;;
55063;SDS011;40963;52.168;21.296;2023-01-19T04:29:42;38.08;;;16.90;;
55063;SDS011;40963;52.168;21.296;2023-01-19T04:32:07;36.42;;;16.63;;
55063;SDS011;40963;52.168;21.296;2023-01-19T04:34:33;34.60;;;14.77;;
55063;SDS011;40963;52.168;21.296;2023-01-19T04:36:59;34.85;;;14.82;;
55063;SDS011;40963;52.168;21.296;2023-01-19T04:39:24;36.35;;;16.00;;
55063;SDS011;40963;52.168;21.296;2023-01-19T04:41:51;33.80;;;16.05;;
55063;SDS011;40963;52.168;21.296;2023-01-19T04:44:17;33.95;;;13.95;;
55063;SDS011;40963;52.168;21.296;2023-01-19T04:46:43;30.38;;;13.90;;
55063;SDS011;40963;52.168;21.296;2023-01-19T04:49:09;29.33;;;12.85;;
55063;SDS011;40963;52.168;21.296;2023-01-19T04:51:35;27.10;;;12.93;;
55063;SDS011;40963;52.168;21.296;2023-01-19T04:54:01;26.48;;;12.95;;
55063;SDS011;40963;52.168;21.296;2023-01-19T04:56:27;24.83;;;11.65;;
55063;SDS011;40963;52.168;21.296;2023-01-19T04:58:53;28.40;;;13.25;;
55063;SDS011;40963;52.168;21.296;2023-01-19T05:01:19;32.20;;;13.05;;
55063;SDS011;40963;52.168;21.296;2023-01-19T05:03:45;30.38;;;13.68;;
55063;SDS011;40963;52.168;21.296;2023-01-19T05:06:10;30.67;;;12.52;;
55063;SDS011;40963;52.168;21.296;2023-01-19T05:08:36;24.75;;;11.68;;
55063;SDS011;40963;52.168;21.296;2023-01-19T05:11:02;31.67;;;12.15;;
55063;SDS011;40963;52.168;21.296;2023-01-19T05:13:28;25.88;;;12.10;;
55063;SDS011;40963;52.168;21.296;2023-01-19T05:15:54;32.45;;;14.00;;
55063;SDS011;40963;52.168;21.296;2023-01-19T05:18:19;31.95;;;13.15;;
55063;SDS011;40963;52.168;21.296;2023-01-19T05:20:45;30.38;;;13.60;;
55063;SDS011;40963;52.168;21.296;2023-01-19T05:23:11;28.38;;;14.27;;
55063;SDS011;40963;52.168;21.296;2023-01-19T05:25:37;30.30;;;13.77;;
55063;SDS011;40963;52.168;21.296;2023-01-19T05:28:02;33.80;;;14.90;;
55063;SDS011;40963;52.168;21.296;2023-01-19T05:30:28;39.38;;;14.27;;
55063;SDS011;40963;52.168;21.296;2023-01-19T05:32:54;30.25;;;13.73;;
55063;SDS011;40963;52.168;21.296;2023-01-19T05:35:19;30.52;;;14.18;;
55063;SDS011;40963;52.168;21.296;2023-01-19T05:37:45;38.35;;;14.63;;
55063;SDS011;40963;52.168;21.296;2023-01-19T05:40:11;27.00;;;12.63;;
55063;SDS011;40963;52.168;21.296;2023-01-19T05:42:37;26.42;;;13.60;;
55063;SDS011;40963;52.168;21.296;2023-01-19T05:45:03;30.92;;;14.25;;
55063;SDS011;40963;52.168;21.296;2023-01-19T05:47:29;34.20;;;14.60;;
55063;SDS011;40963;52.168;21.296;2023-01-19T05:49:55;31.58;;;14.07;;
55063;SDS011;40963;52.168;21.296;2023-01-19T05:52:20;30.92;;;14.13;;
55063;SDS011;40963;52.168;21.296;2023-01-19T05:54:46;33.33;;;14.38;;
55063;SDS011;40963;52.168;21.296;2023-01-19T05:57:12;34.00;;;14.77;;
55063;SDS011;40963;52.168;21.296;2023-01-19T05:59:38;39.28;;;15.93;;
55063;SDS011;40963;52.168;21.296;2023-01-19T06:02:04;39.03;;;16.67;;
55063;SDS011;40963;52.168;21.296;2023-01-19T06:04:30;39.03;;;17.63;;
55063;SDS011;40963;52.168;21.296;2023-01-19T06:06:56;42.63;;;17.90;;
55063;SDS011;40963;52.168;21.296;2023-01-19T06:09:22;42.53;;;16.77;;
55063;SDS011;40963;52.168;21.296;2023-01-19T06:11:47;37.42;;;17.20;;
55063;SDS011;40963;52.168;21.296;2023-01-19T06:14:13;34.30;;;17.25;;
55063;SDS011;40963;52.168;21.296;2023-01-19T06:16:38;35.75;;;16.73;;
55063;SDS011;40963;52.168;21.296;2023-01-19T06:19:04;37.75;;;17.10;;
55063;SDS011;40963;52.168;21.296;2023-01-19T06:21:30;35.33;;;16.05;;
55063;SDS011;40963;52.168;21.296;2023-01-19T06:23:56;35.00;;;15.18;;
55063;SDS011;40963;52.168;21.296;2023-01-19T06:26:22;35.88;;;15.25;;
55063;SDS011;40963;52.168;21.296;2023-01-19T06:28:49;33.85;;;15.70;;
55063;SDS011;40963;52.168;21.296;2023-01-19T06:31:16;28.95;;;14.15;;
55063;SDS011;40963;52.168;21.296;2023-01-19T06:33:41;26.88;;;13.07;;
55063;SDS011;40963;52.168;21.296;2023-01-19T06:36:07;33.35;;;13.55;;
55063;SDS011;40963;52.168;21.296;2023-01-19T06:38:33;34.65;;;13.70;;
55063;SDS011;40963;52.168;21.296;2023-01-19T06:40:59;29.85;;;14.02;;
55063;SDS011;40963;52.168;21.296;2023-01-19T06:43:27;31.80;;;14.65;;
55063;SDS011;40963;52.168;21.296;2023-01-19T06:45:53;31.83;;;14.95;;
55063;SDS011;40963;52.168;21.296;2023-01-19T06:48:20;33.20;;;14.73;;
55063;SDS011;40963;52.168;21.296;2023-01-19T06:50:46;36.17;;;14.75;;
55063;SDS011;40963;52.168;21.296;2023-01-19T06:53:13;29.45;;;13.63;;
55063;SDS011;40963;52.168;21.296;2023-01-19T06:55:40;36.78;;;15.73;;
55063;SDS011;40963;52.168;21.296;2023-01-19T06:58:09;33.17;;;14.00;;
55063;SDS011;40963;52.168;21.296;2023-01-19T07:00:35;32.88;;;15.02;;
55063;SDS011;40963;52.168;21.296;2023-01-19T07:03:01;31.10;;;14.73;;
55063;SDS011;40963;52.168;21.296;2023-01-19T07:05:26;28.25;;;12.65;;
55063;SDS011;40963;52.168;21.296;2023-01-19T07:07:52;30.10;;;12.70;;
55063;SDS011;40963;52.168;21.296;2023-01-19T07:10:20;30.23;;;12.63;;
55063;SDS011;40963;52.168;21.296;2023-01-19T07:12:46;39.20;;;16.30;;
55063;SDS011;40963;52.168;21.296;2023-01-19T07:15:15;32.22;;;15.00;;
55063;SDS011;40963;52.168;21.296;2023-01-19T07:17:43;32.85;;;13.07;;
55063;SDS011;40963;52.168;21.296;2023-01-19T07:20:09;30.63;;;13.23;;
55063;SDS011;40963;52.168;21.296;2023-01-19T07:22:39;28.15;;;12.25;;
55063;SDS011;40963;52.168;21.296;2023-01-19T07:25:07;31.80;;;12.27;;
55063;SDS011;40963;52.168;21.296;2023-01-19T07:27:34;28.52;;;12.40;;
55063;SDS011;40963;52.168;21.296;2023-01-19T07:30:00;28.00;;;13.57;;
55063;SDS011;40963;52.168;21.296;2023-01-19T07:32:26;23.83;;;11.43;;
55063;SDS011;40963;52.168;21.296;2023-01-19T07:34:52;26.08;;;11.25;;
55063;SDS011;40963;52.168;21.296;2023-01-19T07:37:18;30.08;;;12.60;;
55063;SDS011;40963;52.168;21.296;2023-01-19T07:39:43;28.80;;;13.10;;
55063;SDS011;40963;52.168;21.296;2023-01-19T07:42:09;25.20;;;12.32;;
55063;SDS011;40963;52.168;21.296;2023-01-19T07:44:35;25.08;;;11.85;;
55063;SDS011;40963;52.168;21.296;2023-01-19T07:47:01;36.35;;;12.93;;
55063;SDS011;40963;52.168;21.296;2023-01-19T07:49:26;28.98;;;12.77;;
55063;SDS011;40963;52.168;21.296;2023-01-19T07:51:52;29.67;;;12.52;;
55063;SDS011;40963;52.168;21.296;2023-01-19T07:54:20;27.98;;;12.05;;
55063;SDS011;40963;52.168;21.296;2023-01-19T07:56:46;27.50;;;12.70;;
55063;SDS011;40963;52.168;21.296;2023-01-19T07:59:12;30.23;;;12.00;;
55063;SDS011;40963;52.168;21.296;2023-01-19T08:01:37;28.83;;;12.15;;
55063;SDS011;40963;52.168;21.296;2023-01-19T08:04:03;27.45;;;11.75;;
55063;SDS011;40963;52.168;21.296;2023-01-19T08:06:32;28.00;;;12.82;;
55063;SDS011;40963;52.168;21.296;2023-01-19T08:09:00;27.42;;;12.15;;
55063;SDS011;40963;52.168;21.296;2023-01-19T08:11:28;25.00;;;11.52;;
55063;SDS011;40963;52.168;21.296;2023-01-19T08:13:54;27.73;;;12.20;;
55063;SDS011;40963;52.168;21.296;2023-01-19T08:16:19;27.00;;;11.48;;
55063;SDS011;40963;52.168;21.296;2023-01-19T08:18:45;33.03;;;13.32;;
55063;SDS011;40963;52.168;21.296;2023-01-19T08:21:11;37.83;;;14.38;;
55063;SDS011;40963;52.168;21.296;2023-01-19T08:23:36;36.03;;;15.35;;
55063;SDS011;40963;52.168;21.296;2023-01-19T08:26:16;38.38;;;15.07;;
55063;SDS011;40963;52.168;21.296;2023-01-19T08:28:53;23.58;;;11.70;;
55063;SDS011;40963;52.168;21.296;2023-01-19T08:31:19;28.40;;;13.85;;
55063;SDS011;40963;52.168;21.296;2023-01-19T08:33:45;26.60;;;12.30;;
55063;SDS011;40963;52.168;21.296;2023-01-19T08:36:10;21.60;;;10.88;;
55063;SDS011;40963;52.168;21.296;2023-01-19T08:38:36;25.13;;;11.05;;
55063;SDS011;40963;52.168;21.296;2023-01-19T08:41:05;25.80;;;11.75;;
55063;SDS011;40963;52.168;21.296;2023-01-19T08:43:31;29.65;;;12.45;;
55063;SDS011;40963;52.168;21.296;2023-01-19T08:45:56;31.05;;;12.63;;
55063;SDS011;40963;52.168;21.296;2023-01-19T08:48:22;26.08;;;11.73;;
55063;SDS011;40963;52.168;21.296;2023-01-19T08:50:48;27.00;;;10.77;;
55063;SDS011;40963;52.168;21.296;2023-01-19T08:53:15;26.00;;;10.85;;
55063;SDS011;40963;52.168;21.296;2023-01-19T08:55:41;21.50;;;11.10;;
55063;SDS011;40963;52.168;21.296;2023-01-19T08:58:07;28.25;;;12.10;;
55063;SDS011;40963;52.168;21.296;2023-01-19T09:00:33;23.35;;;11.73;;
55063;SDS011;40963;52.168;21.296;2023-01-19T09:03:02;25.85;;;12.00;;
55063;SDS011;40963;52.168;21.296;2023-01-19T09:05:28;27.60;;;10.10;;
55063;SDS011;40963;52.168;21.296;2023-01-19T09:08:03;24.55;;;10.18;;
55063;SDS011;40963;52.168;21.296;2023-01-19T09:10:32;24.15;;;11.25;;
55063;SDS011;40963;52.168;21.296;2023-01-19T09:13:05;24.20;;;10.90;;
55063;SDS011;40963;52.168;21.296;2023-01-19T09:15:34;21.23;;;10.07;;
55063;SDS011;40963;52.168;21.296;2023-01-19T09:18:02;19.98;;;10.38;;
55063;SDS011;40963;52.168;21.296;2023-01-19T09:20:28;19.48;;;9.23;;
55063;SDS011;40963;52.168;21.296;2023-01-19T09:22:55;20.83;;;8.90;;
55063;SDS011;40963;52.168;21.296;2023-01-19T09:25:22;18.15;;;9.13;;
55063;SDS011;40963;52.168;21.296;2023-01-19T09:27:48;17.45;;;9.02;;
55063;SDS011;40963;52.168;21.296;2023-01-19T09:30:14;17.42;;;8.50;;
55063;SDS011;40963;52.168;21.296;2023-01-19T09:32:41;21.60;;;9.15;;
55063;SDS011;40963;52.168;21.296;2023-01-19T09:35:07;18.92;;;10.27;;
55063;SDS011;40963;52.168;21.296;2023-01-19T09:37:33;18.75;;;8.70;;
55063;SDS011;40963;52.168;21.296;2023-01-19T09:39:58;15.27;;;8.20;;
55063;SDS011;40963;52.168;21.296;2023-01-19T09:42:43;17.45;;;8.15;;
55063;SDS011;40963;52.168;21.296;2023-01-19T09:45:52;18.75;;;8.13;;
55063;SDS011;40963;52.168;21.296;2023-01-19T09:50:47;17.97;;;8.17;;
55063;SDS011;40963;52.168;21.296;2023-01-19T09:53:15;17.42;;;8.00;;
55063;SDS011;40963;52.168;21.296;2023-01-19T09:55:50;16.08;;;8.45;;
55063;SDS011;40963;52.168;21.296;2023-01-19T09:58:16;28.27;;;10.77;;
55063;SDS011;40963;52.168;21.296;2023-01-19T10:00:49;20.77;;;9.35;;
55063;SDS011;40963;52.168;21.296;2023-01-19T10:03:22;21.08;;;8.77;;
55063;SDS011;40963;52.168;21.296;2023-01-19T10:05:52;18.10;;;8.65;;
55063;SDS011;40963;52.168;21.296;2023-01-19T10:11:25;16.42;;;8.30;;
55063;SDS011;40963;52.168;21.296;2023-01-19T10:14:00;18.90;;;7.93;;
55063;SDS011;40963;52.168;21.296;2023-01-19T10:16:37;17.50;;;8.20;;
55063;SDS011;40963;52.168;21.296;2023-01-19T10:19:21;17.63;;;8.10;;
55063;SDS011;40963;52.168;21.296;2023-01-19T10:21:47;21.40;;;9.25;;
55063;SDS011;40963;52.168;21.296;2023-01-19T10:26:44;20.98;;;8.85;;
55063;SDS011;40963;52.168;21.296;2023-01-19T10:29:24;24.60;;;10.48;;
55063;SDS011;40963;52.168;21.296;2023-01-19T10:34:41;22.48;;;10.65;;
55063;SDS011;40963;52.168;21.296;2023-01-19T10:39:46;30.02;;;12.98;;
55063;SDS011;40963;52.168;21.296;2023-01-19T10:42:16;28.67;;;12.27;;
55063;SDS011;40963;52.168;21.296;2023-01-19T10:44:42;20.95;;;9.85;;
55063;SDS011;40963;52.168;21.296;2023-01-19T10:47:13;18.73;;;9.18;;
55063;SDS011;40963;52.168;21.296;2023-01-19T10:49:45;20.08;;;9.43;;
55063;SDS011;40963;52.168;21.296;2023-01-19T10:52:32;20.08;;;9.07;;
55063;SDS011;40963;52.168;21.296;2023-01-19T10:54:59;20.08;;;9.60;;
55063;SDS011;40963;52.168;21.296;2023-01-19T10:57:32;22.58;;;10.30;;
55063;SDS011;40963;52.168;21.296;2023-01-19T11:00:04;26.58;;;9.75;;
55063;SDS011;40963;52.168;21.296;2023-01-19T11:02:31;22.98;;;10.40;;
55063;SDS011;40963;52.168;21.296;2023-01-19T11:04:58;20.63;;;9.80;;
55063;SDS011;40963;52.168;21.296;2023-01-19T11:12:55;19.83;;;10.40;;
55063;SDS011;40963;52.168;21.296;2023-01-19T11:15:30;23.02;;;11.07;;
55063;SDS011;40963;52.168;21.296;2023-01-19T11:17:56;32.78;;;13.07;;
55063;SDS011;40963;52.168;21.296;2023-01-19T11:20:23;25.40;;;11.93;;
55063;SDS011;40963;52.168;21.296;2023-01-19T11:25:40;26.25;;;11.30;;
55063;SDS011;40963;52.168;21.296;2023-01-19T11:28:25;27.65;;;10.65;;
55063;SDS011;40963;52.168;21.296;2023-01-19T11:33:36;22.10;;;11.13;;
55063;SDS011;40963;52.168;21.296;2023-01-19T11:36:08;29.33;;;12.52;;
55063;SDS011;40963;52.168;21.296;2023-01-19T11:38:42;22.48;;;10.65;;
55063;SDS011;40963;52.168;21.296;2023-01-19T11:41:15;23.45;;;10.27;;
55063;SDS011;40963;52.168;21.296;2023-01-19T11:43:44;23.00;;;10.57;;
55063;SDS011;40963;52.168;21.296;2023-01-19T11:46:13;24.52;;;12.05;;
55063;SDS011;40963;52.168;21.296;2023-01-19T11:48:41;25.13;;;11.20;;
55063;SDS011;40963;52.168;21.296;2023-01-19T11:51:27;23.15;;;10.82;;
55063;SDS011;40963;52.168;21.296;2023-01-19T11:54:07;28.08;;;11.88;;
55063;SDS011;40963;52.168;21.296;2023-01-19T12:01:46;20.58;;;8.95;;
55063;SDS011;40963;52.168;21.296;2023-01-19T12:04:29;18.70;;;9.25;;
55063;SDS011;40963;52.168;21.296;2023-01-19T12:07:01;24.08;;;9.65;;
55063;SDS011;40963;52.168;21.296;2023-01-19T12:12:04;23.10;;;11.20;;
55063;SDS011;40963;52.168;21.296;2023-01-19T12:17:40;27.85;;;11.55;;
55063;SDS011;40963;52.168;21.296;2023-01-19T12:28:36;24.13;;;10.45;;
55063;SDS011;40963;52.168;21.296;2023-01-19T12:31:04;33.60;;;12.15;;
55063;SDS011;40963;52.168;21.296;2023-01-19T12:33:31;22.25;;;10.70;;
55063;SDS011;40963;52.168;21.296;2023-01-19T12:41:16;26.25;;;12.13;;
55063;SDS011;40963;52.168;21.296;2023-01-19T12:46:35;33.47;;;14.75;;
55063;SDS011;40963;52.168;21.296;2023-01-19T12:51:48;39.10;;;16.80;;
55063;SDS011;40963;52.168;21.296;2023-01-19T12:54:18;34.33;;;15.68;;
55063;SDS011;40963;52.168;21.296;2023-01-19T12:56:54;38.07;;;16.20;;
55063;SDS011;40963;52.168;21.296;2023-01-19T12:59:23;32.15;;;15.43;;
55063;SDS011;40963;52.168;21.296;2023-01-19T13:15:43;32.55;;;14.10;;
55063;SDS011;40963;52.168;21.296;2023-01-19T13:18:12;33.60;;;12.35;;
55063;SDS011;40963;52.168;21.296;2023-01-19T13:23:24;28.77;;;12.07;;
55063;SDS011;40963;52.168;21.296;2023-01-19T13:26:05;33.13;;;15.95;;
55063;SDS011;40963;52.168;21.296;2023-01-19T13:28:38;28.85;;;12.18;;
55063;SDS011;40963;52.168;21.296;2023-01-19T13:31:14;31.25;;;12.48;;
55063;SDS011;40963;52.168;21.296;2023-01-19T13:33:48;29.60;;;12.23;;
55063;SDS011;40963;52.168;21.296;2023-01-19T13:36:27;27.50;;;12.02;;
55063;SDS011;40963;52.168;21.296;2023-01-19T13:39:02;27.88;;;12.57;;
55063;SDS011;40963;52.168;21.296;2023-01-19T13:41:31;26.67;;;11.88;;
55063;SDS011;40963;52.168;21.296;2023-01-19T13:44:07;30.25;;;13.80;;
55063;SDS011;40963;52.168;21.296;2023-01-19T13:46:51;25.15;;;12.95;;
55063;SDS011;40963;52.168;21.296;2023-01-19T13:52:06;26.45;;;12.07;;
55063;SDS011;40963;52.168;21.296;2023-01-19T13:54:45;31.02;;;13.77;;
55063;SDS011;40963;52.168;21.296;2023-01-19T14:05:14;27.33;;;12.35;;
55063;SDS011;40963;52.168;21.296;2023-01-19T14:07:45;27.85;;;12.13;;
55063;SDS011;40963;52.168;21.296;2023-01-19T14:10:11;29.88;;;12.65;;
55063;SDS011;40963;52.168;21.296;2023-01-19T14:12:39;28.00;;;11.75;;
55063;SDS011;40963;52.168;21.296;2023-01-19T14:15:05;27.10;;;12.25;;
55063;SDS011;40963;52.168;21.296;2023-01-19T14:17:38;30.85;;;13.60;;
55063;SDS011;40963;52.168;21.296;2023-01-19T14:20:05;38.33;;;15.25;;
55063;SDS011;40963;52.168;21.296;2023-01-19T14:22:51;32.17;;;14.77;;
55063;SDS011;40963;52.168;21.296;2023-01-19T14:25:35;30.45;;;13.00;;
55063;SDS011;40963;52.168;21.296;2023-01-19T14:33:35;28.48;;;12.23;;
55063;SDS011;40963;52.168;21.296;2023-01-19T14:38:44;32.88;;;13.23;;
55063;SDS011;40963;52.168;21.296;2023-01-19T14:44:00;26.20;;;12.38;;
55063;SDS011;40963;52.168;21.296;2023-01-19T14:46:27;30.52;;;13.73;;
55063;SDS011;40963;52.168;21.296;2023-01-19T14:48:54;31.92;;;14.20;;
55063;SDS011;40963;52.168;21.296;2023-01-19T14:51:25;38.72;;;15.27;;
55063;SDS011;40963;52.168;21.296;2023-01-19T14:53:53;34.90;;;15.15;;
55063;SDS011;40963;52.168;21.296;2023-01-19T14:56:24;34.72;;;14.13;;
55063;SDS011;40963;52.168;21.296;2023-01-19T14:58:55;31.13;;;14.63;;
55063;SDS011;40963;52.168;21.296;2023-01-19T15:01:21;31.65;;;14.88;;
55063;SDS011;40963;52.168;21.296;2023-01-19T15:03:48;41.97;;;14.88;;
55063;SDS011;40963;52.168;21.296;2023-01-19T15:06:14;35.10;;;15.25;;
55063;SDS011;40963;52.168;21.296;2023-01-19T15:08:42;33.67;;;14.68;;
55063;SDS011;40963;52.168;21.296;2023-01-19T15:11:09;24.75;;;12.60;;
55063;SDS011;40963;52.168;21.296;2023-01-19T15:13:51;30.33;;;13.55;;
55063;SDS011;40963;52.168;21.296;2023-01-19T15:16:17;35.42;;;14.38;;
55063;SDS011;40963;52.168;21.296;2023-01-19T15:18:43;33.63;;;14.25;;
55063;SDS011;40963;52.168;21.296;2023-01-19T15:21:10;36.80;;;15.20;;
55063;SDS011;40963;52.168;21.296;2023-01-19T15:23:39;34.40;;;15.48;;
55063;SDS011;40963;52.168;21.296;2023-01-19T15:26:05;38.90;;;15.75;;
55063;SDS011;40963;52.168;21.296;2023-01-19T15:28:31;38.83;;;15.75;;
55063;SDS011;40963;52.168;21.296;2023-01-19T15:30:58;36.05;;;15.73;;
55063;SDS011;40963;52.168;21.296;2023-01-19T15:33:25;37.45;;;16.30;;
55063;SDS011;40963;52.168;21.296;2023-01-19T15:35:52;49.60;;;18.67;;
55063;SDS011;40963;52.168;21.296;2023-01-19T15:38:18;59.88;;;19.25;;
55063;SDS011;40963;52.168;21.296;2023-01-19T15:40:44;48.42;;;19.67;;
55063;SDS011;40963;52.168;21.296;2023-01-19T15:43:11;44.42;;;19.92;;
55063;SDS011;40963;52.168;21.296;2023-01-19T15:45:37;43.55;;;18.38;;
55063;SDS011;40963;52.168;21.296;2023-01-19T15:48:12;41.10;;;17.77;;
55063;SDS011;40963;52.168;21.296;2023-01-19T15:50:39;45.40;;;18.05;;
55063;SDS011;40963;52.168;21.296;2023-01-19T15:53:06;39.88;;;16.20;;
55063;SDS011;40963;52.168;21.296;2023-01-19T15:55:40;37.45;;;17.05;;
55063;SDS011;40963;52.168;21.296;2023-01-19T15:58:06;42.53;;;18.30;;
55063;SDS011;40963;52.168;21.296;2023-01-19T16:00:32;32.50;;;14.93;;
55063;SDS011;40963;52.168;21.296;2023-01-19T16:02:59;36.13;;;16.40;;
55063;SDS011;40963;52.168;21.296;2023-01-19T16:05:26;31.85;;;14.52;;